Terminal Aerodrome Forecast
Issued by NWS

Home | Current Version | Previous Version | Text Only | Print | Product List | Glossary On
Versions: 1 2 3 4 5 6 7 8 9 10 11 12 13 14 15 16 17 18 19 20 21 22 23 24 25 26 27 28 29 30 31
000
FTUS41 KOKX 231700
TAFTEB
TAF
KTEB 231720Z 2318/2418 35013G21KT P6SM -SHRA FEW015 OVC025
      TEMPO 2318/2320 5SM -SHRA BR BKN015
     FM232000 34012G19KT P6SM VCSH BKN030 OVC060
     FM232300 33011G17KT P6SM BKN035 BKN060
     FM240200 33010KT P6SM BKN050 BKN080
     FM241400 32013G20KT P6SM BKN050=

USA.gov is the U.S. government's official web portal to all federal, state and local government web resources and services.